createdAt,value
2018-04-23T00:01:55.507Z,5.77
2018-04-23T00:04:23.781Z,6.57
2018-04-23T00:06:51.401Z,5.93
2018-04-23T00:09:18.909Z,6.15
2018-04-23T00:11:46.417Z,7.00
2018-04-23T00:14:13.965Z,6.23
2018-04-23T00:16:42.384Z,8.20
2018-04-23T00:19:09.893Z,6.67
2018-04-23T00:21:37.440Z,6.20
2018-04-23T00:24:04.955Z,9.37
2018-04-23T00:26:32.478Z,6.50
2018-04-23T00:28:59.999Z,7.20
2018-04-23T00:31:27.555Z,6.07
2018-04-23T00:33:55.846Z,6.70
2018-04-23T00:36:23.378Z,7.67
2018-04-23T00:38:51.666Z,7.97
2018-04-23T00:41:20.020Z,6.33
2018-04-23T00:43:47.784Z,6.47
2018-04-23T00:46:15.287Z,6.20
2018-04-23T00:48:43.561Z,7.07
2018-04-23T00:51:11.862Z,6.23
2018-04-23T00:53:39.373Z,7.10
2018-04-23T00:56:06.879Z,7.68
2018-04-23T00:58:34.451Z,6.90
2018-04-23T01:01:02.726Z,6.30
2018-04-23T01:03:30.249Z,7.90
2018-04-23T01:05:57.809Z,7.55
2018-04-23T01:08:25.319Z,7.47
2018-04-23T01:10:52.816Z,6.40
2018-04-23T01:13:20.362Z,6.53
2018-04-23T01:15:47.874Z,6.60
2018-04-23T01:18:16.890Z,7.00
2018-04-23T01:20:45.177Z,7.07
2018-04-23T01:23:13.449Z,7.23
2018-04-23T01:25:41.729Z,8.43
2018-04-23T01:28:10.022Z,6.87
2018-04-23T01:30:38.310Z,6.83
2018-04-23T01:33:06.595Z,6.53
2018-04-23T01:35:34.137Z,7.27
2018-04-23T01:38:02.419Z,7.27
2018-04-23T01:40:30.721Z,8.40
2018-04-23T01:42:58.275Z,6.83
2018-04-23T01:45:27.757Z,6.97
2018-04-23T01:47:56.048Z,7.07
2018-04-23T01:50:24.370Z,7.40
2018-04-23T01:52:51.883Z,7.63
2018-04-23T01:55:19.398Z,6.60
2018-04-23T01:57:46.939Z,7.10
2018-04-23T02:00:15.205Z,7.57
2018-04-23T02:02:42.717Z,7.20
2018-04-23T02:05:10.271Z,6.93
2018-04-23T02:07:37.788Z,7.83
2018-04-23T02:10:05.298Z,7.67
2018-04-23T02:12:32.828Z,8.07
2018-04-23T02:15:00.352Z,7.20
2018-04-23T02:17:27.856Z,8.10
2018-04-23T02:19:56.144Z,7.03
2018-04-23T02:22:24.421Z,7.67
2018-04-23T02:24:52.697Z,7.93
2018-04-23T02:27:20.996Z,7.03
2018-04-23T02:29:49.269Z,6.70
2018-04-23T02:32:17.559Z,8.43
2018-04-23T02:34:45.854Z,6.80
2018-04-23T02:37:13.362Z,7.13
2018-04-23T02:39:40.872Z,7.10
2018-04-23T02:42:08.398Z,6.40
2018-04-23T02:44:36.677Z,7.13
2018-04-23T02:47:04.344Z,7.80
2018-04-23T02:49:31.885Z,7.07
2018-04-23T02:51:59.396Z,7.00
2018-04-23T02:54:27.669Z,9.20
2018-04-23T02:56:55.981Z,8.00
2018-04-23T02:59:23.480Z,7.90
2018-04-23T03:01:50.999Z,7.47
2018-04-23T03:04:18.553Z,8.57
2018-04-23T03:06:46.831Z,9.77
2018-04-23T03:09:15.096Z,7.77
2018-04-23T03:11:42.634Z,7.30
2018-04-23T03:14:10.148Z,7.30
2018-04-23T03:16:38.421Z,9.37
2018-04-23T03:19:06.737Z,6.83
2018-04-23T03:21:34.241Z,7.93
2018-04-23T03:24:01.750Z,9.50
2018-04-23T03:26:29.277Z,7.17
2018-04-23T03:28:56.802Z,7.40
2018-04-23T03:31:24.321Z,8.00
2018-04-23T03:33:52.604Z,7.63
2018-04-23T03:36:20.917Z,7.67
2018-04-23T03:38:48.431Z,7.80
2018-04-23T03:41:17.477Z,9.63
2018-04-23T03:43:44.983Z,7.40
2018-04-23T03:46:12.485Z,7.50
2018-04-23T03:48:40.861Z,7.70
2018-04-23T03:51:09.142Z,7.13
2018-04-23T03:53:37.421Z,8.53
2018-04-23T03:56:05.749Z,8.30
2018-04-23T03:58:33.249Z,9.50
2018-04-23T04:01:02.285Z,7.67
2018-04-23T04:03:29.805Z,7.67
2018-04-23T04:05:57.322Z,8.43
2018-04-23T04:08:24.821Z,7.27
2018-04-23T04:10:52.369Z,7.97
2018-04-23T04:13:31.610Z,9.90
2018-04-23T04:16:10.845Z,9.50
2018-04-23T04:18:45.099Z,8.00
2018-04-23T04:21:12.616Z,8.63
2018-04-23T04:23:40.137Z,9.13
2018-04-23T04:26:08.402Z,9.77
2018-04-23T04:28:35.929Z,9.03
2018-04-23T04:31:03.434Z,9.63
2018-04-23T04:33:31.728Z,9.43
2018-04-23T04:36:00.014Z,9.53
2018-04-23T04:38:28.293Z,10.10
2018-04-23T04:40:56.564Z,8.97
2018-04-23T04:43:24.858Z,10.60
2018-04-23T04:45:52.413Z,9.33
2018-04-23T04:48:20.718Z,10.80
2018-04-23T04:50:48.366Z,11.23
2018-04-23T04:53:16.655Z,12.77
2018-04-23T04:55:44.930Z,10.50
2018-04-23T04:58:13.228Z,9.80
2018-04-23T05:00:40.733Z,10.53
2018-04-23T05:03:08.242Z,12.87
2018-04-23T05:05:35.774Z,13.40
2018-04-23T05:08:03.375Z,10.37
2018-04-23T05:10:30.918Z,12.17
2018-04-23T05:12:59.210Z,18.17
2018-04-23T05:15:27.487Z,10.20
2018-04-23T05:17:55.769Z,13.30
2018-04-23T05:20:24.089Z,10.27
2018-04-23T05:22:51.651Z,10.30
2018-04-23T05:25:19.187Z,13.43
2018-04-23T05:27:47.677Z,13.43
2018-04-23T05:30:15.220Z,11.43
2018-04-23T05:32:42.734Z,11.13
2018-04-23T05:35:10.289Z,12.90
2018-04-23T05:37:37.837Z,13.43
2018-04-23T05:40:05.673Z,11.57
2018-04-23T05:42:33.225Z,11.27
2018-04-23T05:45:00.736Z,11.93
2018-04-23T05:47:28.253Z,13.27
2018-04-23T05:49:55.803Z,14.00
2018-04-23T05:52:23.703Z,14.20
2018-04-23T05:54:51.222Z,14.63
2018-04-23T05:57:19.521Z,11.53
2018-04-23T05:59:47.056Z,17.73
2018-04-23T06:02:14.653Z,12.73
2018-04-23T06:04:42.202Z,12.63
2018-04-23T06:07:09.732Z,13.47
2018-04-23T06:09:38.014Z,13.73
2018-04-23T06:12:06.384Z,12.03
2018-04-23T06:14:34.681Z,12.13
2018-04-23T06:17:02.212Z,18.37
2018-04-23T06:19:29.750Z,17.50
2018-04-23T06:21:57.276Z,17.55
2018-04-23T06:24:24.800Z,19.50
2018-04-23T06:26:53.109Z,13.73
2018-04-23T06:29:21.396Z,13.13
2018-04-23T06:31:49.676Z,12.02
2018-04-23T06:34:17.987Z,15.20
2018-04-23T06:36:45.514Z,14.90
2018-04-23T06:39:13.791Z,13.60
2018-04-23T06:41:42.125Z,17.00
2018-04-23T06:44:09.662Z,12.95
2018-04-23T06:46:37.333Z,14.98
2018-04-23T06:49:04.889Z,11.35
2018-04-23T06:51:32.445Z,17.77
2018-04-23T06:54:00.079Z,18.17
2018-04-23T06:56:28.407Z,13.75
2018-04-23T06:58:55.937Z,12.82
2018-04-23T07:01:23.482Z,11.73
2018-04-23T07:03:51.036Z,11.38
2018-04-23T07:06:18.662Z,14.73
2018-04-23T07:08:46.253Z,14.10
2018-04-23T07:11:14.643Z,10.80
2018-04-23T07:13:42.173Z,10.45
2018-04-23T07:16:10.581Z,14.95
2018-04-23T07:18:38.264Z,17.50
2018-04-23T07:21:06.589Z,18.90
2018-04-23T07:23:34.871Z,10.73
2018-04-23T07:26:03.216Z,9.13
2018-04-23T07:28:30.752Z,9.20
2018-04-23T07:30:58.277Z,9.32
2018-04-23T07:33:26.861Z,8.48
2018-04-23T07:35:54.470Z,7.82
2018-04-23T07:38:22.800Z,8.50
2018-04-23T07:40:50.448Z,7.47
2018-04-23T07:43:18.042Z,8.57
2018-04-23T07:45:46.384Z,10.00
2018-04-23T07:48:13.905Z,7.20
2018-04-23T07:50:41.426Z,8.05
2018-04-23T07:53:08.991Z,7.37
2018-04-23T07:55:37.772Z,8.88
2018-04-23T07:58:05.493Z,9.00
2018-04-23T08:00:33.415Z,7.62
2018-04-23T08:03:01.157Z,6.95
2018-04-23T08:05:28.661Z,7.55
2018-04-23T08:07:56.269Z,9.43
2018-04-23T08:10:24.592Z,9.38
2018-04-23T08:12:52.097Z,7.50
2018-04-23T08:15:19.609Z,9.45
2018-04-23T08:17:47.149Z,6.97
2018-04-23T08:20:15.419Z,8.98
2018-04-23T08:22:43.696Z,9.05
2018-04-23T08:25:12.004Z,8.80
2018-04-23T08:27:39.509Z,10.02
2018-04-23T08:30:07.010Z,8.57
2018-04-23T08:32:35.326Z,7.40
2018-04-23T08:35:02.821Z,6.30
2018-04-23T08:37:30.333Z,8.40
2018-04-23T08:39:57.862Z,6.30
2018-04-23T08:42:26.169Z,9.90
2018-04-23T08:44:54.437Z,6.68
2018-04-23T08:47:22.737Z,8.50
2018-04-23T08:49:50.256Z,10.80
2018-04-23T08:52:17.761Z,12.60
2018-04-23T08:54:46.061Z,7.00
2018-04-23T08:57:13.740Z,8.43
2018-04-23T08:59:41.273Z,6.50
2018-04-23T09:02:08.817Z,8.93
2018-04-23T09:04:36.333Z,5.50
2018-04-23T09:07:03.849Z,10.18
2018-04-23T09:09:32.158Z,5.65
2018-04-23T09:11:59.693Z,6.10
2018-04-23T09:14:27.957Z,9.55
2018-04-23T09:16:57.023Z,10.48
2018-04-23T09:19:24.549Z,5.35
2018-04-23T09:21:52.822Z,8.07
2018-04-23T09:24:21.126Z,8.55
2018-04-23T09:26:48.635Z,9.43
2018-04-23T09:29:16.139Z,9.75
2018-04-23T09:31:44.451Z,8.90
2018-04-23T09:34:11.945Z,9.13
2018-04-23T09:36:39.446Z,6.85
2018-04-23T09:39:07.756Z,11.63
2018-04-23T09:41:36.055Z,7.50
2018-04-23T09:44:03.593Z,8.32
2018-04-23T09:46:31.137Z,8.40
2018-04-23T09:48:59.421Z,8.73
2018-04-23T09:51:27.722Z,8.98
2018-04-23T09:53:55.257Z,9.75
2018-04-23T09:56:23.561Z,10.73
2018-04-23T09:58:51.389Z,11.98
2018-04-23T10:01:21.409Z,13.27
2018-04-23T10:03:50.848Z,11.80
2018-04-23T10:06:19.131Z,10.32
2018-04-23T10:08:47.427Z,14.18
2018-04-23T10:11:14.986Z,15.73
2018-04-23T10:13:42.514Z,11.23
2018-04-23T10:16:10.050Z,9.07
2018-04-23T10:18:37.573Z,11.07
2018-04-23T10:21:05.850Z,6.35
2018-04-23T10:23:34.156Z,8.10
2018-04-23T10:26:01.668Z,7.40
2018-04-23T10:28:29.280Z,9.45
2018-04-23T10:30:56.801Z,6.60
2018-04-23T10:33:24.317Z,6.75
2018-04-23T10:35:51.846Z,5.10
2018-04-23T10:38:20.158Z,6.45
2018-04-23T10:40:47.722Z,4.45
2018-04-23T10:43:15.244Z,7.87
2018-04-23T10:45:42.774Z,9.05
2018-04-23T10:48:10.290Z,9.18
2018-04-23T10:50:38.609Z,8.10
2018-04-23T10:53:06.149Z,5.32
2018-04-23T10:55:33.679Z,7.47
2018-04-23T10:58:01.179Z,8.65
2018-04-23T11:00:28.825Z,6.97
2018-04-23T11:02:57.111Z,12.50
2018-04-23T11:05:25.385Z,8.55
2018-04-23T11:07:53.737Z,8.25
2018-04-23T11:10:21.252Z,7.50
2018-04-23T11:12:48.773Z,7.50
2018-04-23T11:15:16.297Z,5.12
2018-04-23T11:17:43.804Z,4.93
2018-04-23T11:20:11.313Z,7.20
2018-04-23T11:22:38.873Z,4.47
2018-04-23T11:25:06.389Z,17.55
2018-04-23T11:27:33.900Z,6.35
2018-04-23T11:30:01.431Z,6.45
2018-04-23T11:32:29.737Z,9.15
2018-04-23T11:34:58.001Z,10.43
2018-04-23T11:37:26.313Z,9.35
2018-04-23T11:39:53.838Z,10.25
2018-04-23T11:42:21.357Z,7.10
2018-04-23T11:44:48.887Z,11.25
2018-04-23T11:47:17.186Z,14.02
2018-04-23T11:49:44.691Z,17.62
2018-04-23T11:52:12.227Z,11.40
2018-04-23T11:57:09.551Z,13.18
2018-04-23T11:59:37.871Z,20.92
2018-04-23T12:02:05.556Z,62.85
2018-04-23T12:04:33.087Z,28.50
2018-04-23T12:07:01.393Z,29.77
2018-04-23T12:09:28.913Z,27.20
2018-04-23T12:11:56.435Z,30.65
2018-04-23T12:14:23.973Z,23.87
2018-04-23T12:16:51.525Z,20.50
2018-04-23T12:19:19.802Z,22.25
2018-04-23T12:21:48.115Z,21.58
2018-04-23T12:24:15.634Z,20.00
2018-04-23T12:26:43.158Z,23.45
2018-04-23T12:29:10.680Z,22.65
2018-04-23T12:31:38.957Z,16.75
2018-04-23T12:34:07.232Z,18.58
2018-04-23T12:36:35.522Z,13.52
2018-04-23T12:39:04.450Z,18.08
2018-04-23T12:41:31.959Z,16.48
2018-04-23T12:43:59.512Z,15.55
2018-04-23T12:46:27.793Z,18.60
2018-04-23T12:48:55.321Z,25.17
2018-04-23T12:51:22.869Z,12.88
2018-04-23T12:53:50.381Z,16.35
2018-04-23T12:56:17.893Z,21.33
2018-04-23T12:58:45.459Z,19.37
2018-04-23T13:01:12.994Z,18.15
2018-04-23T13:03:41.464Z,16.75
2018-04-23T13:06:08.993Z,17.90
2018-04-23T13:08:36.504Z,12.30
2018-04-23T13:11:04.033Z,15.60
2018-04-23T13:13:32.321Z,12.13
2018-04-23T13:15:59.832Z,12.77
2018-04-23T13:18:28.181Z,10.07
2018-04-23T13:20:56.499Z,11.07
2018-04-23T13:23:24.773Z,8.27
2018-04-23T13:25:53.073Z,6.53
2018-04-23T13:28:20.636Z,5.50
2018-04-23T13:30:48.153Z,6.18
2018-04-23T13:33:15.689Z,6.50
2018-04-23T13:35:43.257Z,8.15
2018-04-23T13:38:11.542Z,7.32
2018-04-23T13:40:39.823Z,8.00
2018-04-23T13:43:08.120Z,6.53
2018-04-23T13:45:35.625Z,4.87
2018-04-23T13:48:03.896Z,6.90
2018-04-23T13:50:32.213Z,6.97
2018-04-23T13:52:59.729Z,7.12
2018-04-23T13:55:27.237Z,5.87
2018-04-23T13:57:54.770Z,6.40
2018-04-23T14:00:23.053Z,8.27
2018-04-23T14:02:51.333Z,8.40
2018-04-23T14:05:19.725Z,6.28
2018-04-23T14:07:47.991Z,8.00
2018-04-23T14:10:16.281Z,5.57
2018-04-23T14:12:44.589Z,7.87
2018-04-23T14:15:12.097Z,8.93
2018-04-23T14:17:39.637Z,8.85
2018-04-23T14:20:07.157Z,8.85
2018-04-23T14:22:35.433Z,6.95
2018-04-23T14:25:03.721Z,5.40
2018-04-23T14:27:32.113Z,8.50
2018-04-23T14:30:00.392Z,8.07
2018-04-23T14:32:28.666Z,6.82
2018-04-23T14:34:56.976Z,9.27
2018-04-23T14:37:24.472Z,9.60
2018-04-23T14:39:52.000Z,7.22
2018-04-23T14:42:19.548Z,9.63
2018-04-23T14:44:47.846Z,7.60
2018-04-23T14:47:15.352Z,4.95
2018-04-23T14:49:42.885Z,9.18
2018-04-23T14:52:10.398Z,8.30
2018-04-23T14:54:37.922Z,9.57
2018-04-23T14:57:05.445Z,13.88
2018-04-23T14:59:33.720Z,8.07
2018-04-23T15:02:02.020Z,6.35
2018-04-23T15:04:29.571Z,10.70
2018-04-23T15:06:57.919Z,9.15
2018-04-23T15:09:25.429Z,9.90
2018-04-23T15:11:52.964Z,12.52
2018-04-23T15:14:21.239Z,7.97
2018-04-23T15:16:48.750Z,7.70
2018-04-23T15:19:16.307Z,7.25
2018-04-23T15:21:43.825Z,9.20
2018-04-23T15:24:11.340Z,7.12
2018-04-23T15:26:38.878Z,9.52
2018-04-23T15:29:07.161Z,7.78
2018-04-23T15:31:35.437Z,11.05
2018-04-23T15:34:03.747Z,11.10
2018-04-23T15:36:31.264Z,5.80
2018-04-23T15:38:59.545Z,9.38
2018-04-23T15:41:27.103Z,9.30
2018-04-23T15:43:55.382Z,6.90
2018-04-23T15:46:22.885Z,9.85
2018-04-23T15:48:51.180Z,7.18
2018-04-23T15:51:19.461Z,8.30
2018-04-23T15:53:46.977Z,7.00
2018-04-23T15:56:14.508Z,7.87
2018-04-23T15:58:42.046Z,13.13
2018-04-23T16:01:09.556Z,8.77
2018-04-23T16:03:37.092Z,6.57
2018-04-23T16:06:05.571Z,12.15
2018-04-23T16:08:34.334Z,10.15
2018-04-23T16:11:02.113Z,10.50
2018-04-23T16:13:29.818Z,10.38
2018-04-23T16:15:57.567Z,6.85
2018-04-23T16:18:25.385Z,9.65
2018-04-23T16:20:53.791Z,6.87
2018-04-23T16:23:21.908Z,12.00
2018-04-23T16:25:49.639Z,7.55
2018-04-23T16:28:17.692Z,7.00
2018-04-23T16:30:45.852Z,7.32
2018-04-23T16:33:13.522Z,9.82
2018-04-23T16:35:41.197Z,9.88
2018-04-23T16:38:09.572Z,11.82
2018-04-23T16:40:37.105Z,9.13
2018-04-23T16:43:04.662Z,9.88
2018-04-23T16:45:32.181Z,8.93
2018-04-23T16:47:59.802Z,9.52
2018-04-23T16:50:27.338Z,13.60
2018-04-23T16:52:54.861Z,13.15
2018-04-23T16:55:22.423Z,9.75
2018-04-23T16:57:49.933Z,14.10
2018-04-23T17:00:18.203Z,9.40
2018-04-23T17:02:46.510Z,12.27
2018-04-23T17:05:14.025Z,9.90
2018-04-23T17:07:41.548Z,10.75
2018-04-23T17:10:09.159Z,13.77
2018-04-23T17:12:36.684Z,9.10
2018-04-23T17:15:04.226Z,7.40
2018-04-23T17:17:32.520Z,12.63
2018-04-23T17:20:00.456Z,13.40
2018-04-23T17:22:28.065Z,8.05
2018-04-23T17:24:55.605Z,14.65
2018-04-23T17:27:23.895Z,11.48
2018-04-23T17:29:51.419Z,7.85
2018-04-23T17:32:20.465Z,9.38
2018-04-23T17:34:47.969Z,8.65
2018-04-23T17:37:15.483Z,10.48
2018-04-23T17:39:43.016Z,11.23
2018-04-23T17:42:10.519Z,9.30
2018-04-23T17:44:38.025Z,13.82
2018-04-23T17:47:05.564Z,9.95
2018-04-23T17:49:33.077Z,10.52
2018-04-23T17:52:01.412Z,10.55
2018-04-23T17:54:28.964Z,12.85
2018-04-23T17:56:56.484Z,10.90
2018-04-23T17:59:23.998Z,9.60
2018-04-23T18:01:51.530Z,9.93
2018-04-23T18:04:19.846Z,11.23
2018-04-23T18:06:47.354Z,9.00
2018-04-23T18:09:14.920Z,9.07
2018-04-23T18:11:42.501Z,8.23
2018-04-23T18:14:10.792Z,10.65
2018-04-23T18:16:39.093Z,10.85
2018-04-23T18:19:06.615Z,9.23
2018-04-23T18:21:34.134Z,14.32
2018-04-23T18:24:01.736Z,8.98
2018-04-23T18:26:29.337Z,13.30
2018-04-23T18:28:56.853Z,10.75
2018-04-23T18:31:24.466Z,12.15
2018-04-23T18:33:51.952Z,10.07
2018-04-23T18:36:19.461Z,12.88
2018-04-23T18:38:47.024Z,9.82
2018-04-23T18:41:14.548Z,10.18
2018-04-23T18:43:42.055Z,9.18
2018-04-23T18:46:09.590Z,10.43
2018-04-23T18:48:37.097Z,12.35
2018-04-23T18:51:05.374Z,14.87
2018-04-23T18:53:33.669Z,9.07
2018-04-23T18:56:01.954Z,13.18
2018-04-23T18:58:30.221Z,9.50
2018-04-23T19:00:58.526Z,14.13
2018-04-23T19:03:26.057Z,12.13
2018-04-23T19:05:53.568Z,9.75
2018-04-23T19:08:21.104Z,12.65
2018-04-23T19:10:49.381Z,11.48
2018-04-23T19:13:17.717Z,10.35
2018-04-23T19:15:45.261Z,11.05
2018-04-23T19:18:12.777Z,14.07
2018-04-23T19:20:40.338Z,13.45
2018-04-23T19:23:08.627Z,14.15
2018-04-23T19:25:36.141Z,18.37
2018-04-23T19:28:03.667Z,8.68
2018-04-23T19:30:32.008Z,10.80
2018-04-23T19:32:59.607Z,12.70
2018-04-23T19:35:27.077Z,9.45
2018-04-23T19:37:55.684Z,11.50
2018-04-23T19:40:23.215Z,14.50
2018-04-23T19:42:51.517Z,11.18
2018-04-23T19:45:19.047Z,11.60
2018-04-23T19:47:46.567Z,16.75
2018-04-23T19:50:14.085Z,10.40
2018-04-23T19:52:41.633Z,11.25
2018-04-23T19:55:09.682Z,11.77
2018-04-23T19:57:37.283Z,11.63
2018-04-23T20:00:04.989Z,12.25
2018-04-23T20:02:32.549Z,16.83
2018-04-23T20:05:00.093Z,11.00
2018-04-23T20:07:27.638Z,11.95
2018-04-23T20:09:55.168Z,11.77
2018-04-23T20:12:22.669Z,9.40
2018-04-23T20:14:50.372Z,14.32
2018-04-23T20:17:29.527Z,13.62
2018-04-23T20:19:57.819Z,12.85
2018-04-23T20:22:25.362Z,9.55
2018-04-23T20:24:52.872Z,11.70
2018-04-23T20:27:20.441Z,11.48
2018-04-23T20:29:47.968Z,12.07
2018-04-23T20:32:15.483Z,12.97
2018-04-23T20:34:43.801Z,11.10
2018-04-23T20:37:11.318Z,14.50
2018-04-23T20:39:38.849Z,14.15
2018-04-23T20:42:06.417Z,17.58
2018-04-23T20:44:33.973Z,15.25
2018-04-23T20:47:01.501Z,14.52
2018-04-23T20:49:29.901Z,10.07
2018-04-23T20:51:57.463Z,13.38
2018-04-23T20:54:25.150Z,8.67
2018-04-23T20:56:52.686Z,11.70
2018-04-23T20:59:21.140Z,12.10
2018-04-23T21:01:50.162Z,10.68
2018-04-23T21:04:18.493Z,10.95
2018-04-23T21:06:46.028Z,10.63
2018-04-23T21:09:13.557Z,10.35
2018-04-23T21:11:41.085Z,13.60
2018-04-23T21:14:09.320Z,11.57
2018-04-23T21:16:37.643Z,11.23
2018-04-23T21:19:05.178Z,12.30
2018-04-23T21:21:32.689Z,11.07
2018-04-23T21:24:00.195Z,13.40
2018-04-23T21:26:28.491Z,13.77
2018-04-23T21:28:56.006Z,13.23
2018-04-23T21:31:23.535Z,15.07
2018-04-23T21:33:51.083Z,12.67
2018-04-23T21:36:18.604Z,11.40
2018-04-23T21:38:46.121Z,10.00
2018-04-23T21:41:13.668Z,14.82
2018-04-23T21:43:42.014Z,16.27
2018-04-23T21:46:09.473Z,11.53
2018-04-23T21:48:37.020Z,9.82
2018-04-23T21:51:04.543Z,11.40
2018-04-23T21:53:32.109Z,15.80
2018-04-23T21:56:00.406Z,13.53
2018-04-23T21:58:27.944Z,13.27
2018-04-23T22:00:56.211Z,14.07
2018-04-23T22:03:23.733Z,16.13
2018-04-23T22:05:51.251Z,14.27
2018-04-23T22:08:19.517Z,14.70
2018-04-23T22:10:47.816Z,13.20
2018-04-23T22:13:16.093Z,15.50
2018-04-23T22:15:44.409Z,11.03
2018-04-23T22:18:12.868Z,12.30
2018-04-23T22:20:40.395Z,16.53
2018-04-23T22:23:07.925Z,13.00
2018-04-23T22:25:35.485Z,13.00
2018-04-23T22:28:02.990Z,12.23
2018-04-23T22:30:30.502Z,12.90
2018-04-23T22:32:58.050Z,12.00
2018-04-23T22:35:26.341Z,12.33
2018-04-23T22:37:54.612Z,13.00
2018-04-23T22:40:22.921Z,12.17
2018-04-23T22:42:50.445Z,12.60
2018-04-23T22:45:18.740Z,9.80
2018-04-23T22:47:47.040Z,14.10
2018-04-23T22:50:14.553Z,12.63
2018-04-23T22:52:42.157Z,15.10
2018-04-23T22:55:10.461Z,9.93
2018-04-23T22:57:37.982Z,11.87
2018-04-23T23:00:06.256Z,12.87
2018-04-23T23:02:34.570Z,17.53
2018-04-23T23:05:02.094Z,10.57
2018-04-23T23:07:30.413Z,15.63
2018-04-23T23:09:57.972Z,12.93
2018-04-23T23:12:25.537Z,15.30
2018-04-23T23:14:53.053Z,12.87
2018-04-23T23:17:20.587Z,14.70
2018-04-23T23:19:48.344Z,12.77
2018-04-23T23:22:16.612Z,15.70
2018-04-23T23:24:44.917Z,17.63
2018-04-23T23:27:12.421Z,13.10
2018-04-23T23:29:39.946Z,13.67
2018-04-23T23:32:07.491Z,13.70
2018-04-23T23:34:35.016Z,13.10
2018-04-23T23:37:02.549Z,11.40
2018-04-23T23:39:30.082Z,12.73
2018-04-23T23:41:58.352Z,16.13
2018-04-23T23:44:26.639Z,12.00
2018-04-23T23:46:54.941Z,9.17
2018-04-23T23:49:22.452Z,12.70
2018-04-23T23:51:51.461Z,14.13
2018-04-23T23:54:19.768Z,12.60
2018-04-23T23:56:48.041Z,13.07
2018-04-23T23:59:16.339Z,14.17
